Terminal Aerodrome Forecast
Issued by NWS

Home | Current Version | Previous Version | Text Only | Print | Product List | Glossary On
Versions: 1 2 3 4 5 6 7 8 9 10 11 12 13 14 15 16 17 18 19 20 21 22 23
000
FTUS41 KBOX 251124
TAFBED
TAF
KBED 251124Z 2512/2612 23004KT 5SM BR BKN008
     FM251300 23004KT P6SM SCT015
     FM251400 25008KT P6SM SCT040
     FM252000 26009KT P6SM FEW250
     FM260000 26005KT P6SM SCT110=

USA.gov is the U.S. government's official web portal to all federal, state and local government web resources and services.